Norris Rancho Marino Reserve, California Weather observations

Data are for 10 minute period ending at time listed.
 Day   Time   Solar   Ave.   Ave.  Ave.  Vector  Max.   Baro.   Total    
  of    of     Rad.   Air    Rel.  Wind   Wind   Wind  Press.  Precip.   
Year   Day            Temp.  Hum.  Speed  Dir.   Gust                    
2014   (PST)  Kw/m2    F      %     mph   deg.    mph    mb.     in.     
-------------------------------------------------------------------------
 206    6:40   0.07   58.7    97    0.8    53     1.8   1009.0    0.00 
 206    6:50   0.08   58.8    97    2.1   145     4.6   1009.1    0.00 
 206    7:00   0.09   58.8    97    3.0   149     4.3   1009.2    0.00 
 206    7:10   0.11   58.8    97    2.7   146     4.2   1009.3    0.00 
 206    7:20   0.11   58.7    97    2.1   148     4.3   1009.4    0.00 
 206    7:30   0.11   59.0    97    3.7   149     5.0   1009.5    0.00 
 206    7:40   0.14   59.1    97    4.7   137     6.7   1009.6    0.00 
 206    7:50   0.17   59.3    96    5.0   142     6.8   1009.7    0.00 
 206    8:00   0.21   59.3    96    6.3   145     9.2   1009.8    0.00 
 206    8:10   0.21   59.6    95    7.7   142    10.0   1009.8    0.00 
 206    8:20   0.20   59.7    94    8.7   142    11.2   1009.9    0.00 
 206    8:30   0.24   59.8    93    7.9   145    10.6   1009.9    0.00 
 206    8:40   0.31   59.7    93    7.9   149    10.6   1009.9    0.00 
 206    8:50   0.35   59.5    93    8.3   154    10.4   1010.0    0.00 
 206    9:00   0.40   59.3    93    7.7   153    10.0   1010.0    0.00 
 206    9:10   0.40   59.8    93    8.3   147    10.4   1010.0    0.00 
 206    9:20   0.40   60.0    91    8.3   146    11.0   1010.0    0.00 
 206    9:30   0.62   60.4    91    7.7   148    10.9   1010.0    0.00 
 206    9:40   0.64   60.5    90    8.2   148    10.4   1009.9    0.00 
 206    9:50   0.62   61.7    88    7.5   144    10.0   1009.9    0.00 
 206   10:00   0.65   62.7    86    8.0   137    10.6   1009.9    0.00 
 206   10:10   0.71   61.9    87    9.1   136    11.6   1009.9    0.00 
 206   10:20   0.68   62.8    86    8.2   139    12.0   1010.0    0.00 
 206   10:30   0.72   63.5    84    8.6   138    12.0   1010.0    0.00 
 206   10:40   0.71   63.6    83    8.8   138    11.8   1010.0    0.00 
 206   10:50   0.70   63.4    84    8.4   137    11.8   1009.9    0.00 
 206   11:00   0.75   64.5    82    7.6   138    11.9   1009.9    0.00 
 206   11:10   0.70   63.5    83    8.2   144    11.0   1009.8    0.00 
 206   11:20   0.68   62.8    86    7.6   148    10.4   1009.8    0.00 
 206   11:30   0.64   62.1    88    7.9   150    11.2   1010.0    0.00 
 206   11:40   0.58   62.3    87    7.7   150    10.2   1010.1    0.00 
 206   11:50   0.64   62.2    88    7.6   148     9.7   1010.2    0.00 
 206   12:00   0.66   63.0    85    7.8   148    10.2   1010.2    0.00 
 206   12:10   0.76   64.0    83    6.9   148     9.8   1010.1    0.00 
 206   12:20   0.83   63.6    83    7.2   150     9.8   1010.1    0.00 
 206   12:30   0.79   64.1    82    5.6   148     8.4   1010.0    0.00 
 206   12:40   0.86   64.1    83    5.8   160     8.6   1009.9    0.00 
 206   12:50   0.76   64.5    82    5.3   161     7.2   1009.9    0.00 
 206   13:00   0.69   64.5    82    5.4   163     7.8   1009.9    0.00 
 206   13:10   0.79   64.4    82    5.2   161     7.8   1009.8    0.00 
 206   13:20   0.77   64.4    82    4.9   167     6.4   1009.7    0.00 
 206   13:30   0.73   64.5    82    5.1   163     7.2   1009.7    0.00 
 206   13:40   0.75   64.4    82    4.8   167     7.7   1009.7    0.00 
 206   13:50   0.67   64.3    82    3.2   198     4.6   1009.6    0.00 
 206   14:00   0.62   63.4    84    2.6   221     4.2   1009.5    0.00 
 206   14:10   0.68   63.0    86    2.8   219     4.3   1009.5    0.00 
 206   14:20   0.60   62.4    86    3.5   224     4.6   1009.4    0.00 
 206   14:30   0.72   62.5    88    4.2   230     5.8   1009.3    0.00 
 206   14:40   0.78   64.2    83    5.0   256     8.2   1009.3    0.00 
 206   14:50   0.66   63.2    84    5.5   268     7.7   1009.2    0.00 
 206   15:00   0.69   62.6    86    5.7   266     7.5   1009.1    0.00 
 206   15:10   0.61   62.2    87    6.0   267     8.6   1009.0    0.00 
 206   15:20   0.60   62.1    87    5.5   278     7.5   1009.0    0.00 
 206   15:30   0.53   61.9    88    5.2   264     7.3   1009.0    0.00 
 206   15:40   0.47   62.3    87    5.5   268     7.2   1008.9    0.00 
 206   15:50   0.51   62.0    88    6.1   271     8.3   1009.0    0.00 
 206   16:00   0.42   61.6    89    5.6   274     7.7   1009.0    0.00 
 206   16:10   0.32   61.1    90    5.7   276     7.4   1009.0    0.00 
 206   16:20   0.25   60.6    91    5.5   278     7.5   1009.0    0.00 
 206   16:30   0.30   60.7    91    6.4   281     8.6   1009.0    0.00 
 206   16:40   0.22   60.3    92    5.6   274     7.2   1009.1    0.00 
 206   16:50   0.19   60.0    93    5.6   287     7.8   1009.2    0.00 
 206   17:00   0.18   59.7    94    5.0   288     7.2   1009.2    0.00 
 206   17:10   0.16   59.4    94    5.7   289     8.6   1009.2    0.00 
 206   17:20   0.12   59.5    95    4.8   295     6.6   1009.2    0.00 
 206   17:30   0.14   59.5    95    6.2   281     8.4   1009.2    0.00 
 206   17:40   0.10   59.2    96    6.0   284     7.7   1009.3    0.00 
 206   17:50   0.09   59.1    96    5.6   301     7.5   1009.4    0.00 
 206   18:00   0.07   59.2    96    6.2   296     8.2   1009.4    0.00 
 206   18:10   0.06   58.9    96    6.0   286     8.6   1009.4    0.00 
 206   18:20   0.04   58.7    96    5.4   305     8.0   1009.5    0.00 
 206   18:30   0.04   58.8    97    5.1   298     7.6   1009.5    0.00 
 206   18:40   0.03   58.7    97    4.8   289     6.9   1009.6    0.00 
 206   18:50   0.02   58.6    97    4.3   286     6.4   1009.5    0.00 
 206   19:00   0.01   58.5    97    4.5   305     6.4   1009.6    0.00 
 206   19:10   0.01   58.4    97    4.3   281     5.6   1009.6    0.00 
 206   19:20   0.00   58.3    97    3.2   281     4.8   1009.8    0.00 
 206   19:30   0.00   58.1    97    3.1   300     4.5   1009.8    0.00 
 206   19:40   0.00   58.2    98    4.3   296     6.6   1009.8    0.00 
 206   19:50   0.00   58.1    98    3.9   311     5.6   1009.8    0.00 
 206   20:00   0.00   58.1    98    3.3   310     5.5   1009.9    0.00 
 206   20:10   0.00   58.1    98    3.9   295     6.6   1009.9    0.00 
 206   20:20   0.00   58.2    98    2.5   317     4.0   1010.1    0.00 
 206   20:30   0.00   58.3    98    2.3   323     3.4   1010.2    0.00 
 206   20:40   0.00   58.3    98    2.5   293     3.8   1010.2    0.00 
 206   20:50   0.00   58.4    98    2.3   284     3.7   1010.4    0.00 
 206   21:00   0.00   58.3    98    2.9   274     5.0   1010.4    0.00 
 206   21:10   0.00   58.3    98    3.1   284     3.7   1010.5    0.00 
 206   21:20   0.00   58.3    98    2.9   275     4.2   1010.5    0.00 
 206   21:30   0.00   58.2    98    3.6   277     4.5   1010.6    0.00 
 206   21:40   0.00   58.1    98    3.2   271     4.2   1010.6    0.00 
 206   21:50   0.00   58.0    98    2.3   268     3.2   1010.8    0.00 
 206   22:00   0.00   58.0    98    1.0   272     1.9   1010.8    0.00 
 206   22:10   0.00   58.0    98    2.2   257     2.9   1010.8    0.00 
 206   22:20   0.00   57.9    98    2.3   244     3.1   1010.8    0.00 
 206   22:30   0.00   57.9    98    1.7   250     2.6   1010.7    0.00 
 206   22:40   0.00   57.9    98    2.7   278     3.7   1010.6    0.00 
 206   22:50   0.00   57.9    98    2.4   272     3.9   1010.6    0.00 
 206   23:00   0.00   57.8    98    3.5   281     4.5   1010.5    0.00 
 206   23:10   0.00   57.6    98    3.5   281     4.7   1010.5    0.00 
 206   23:20   0.00   57.5    98    3.1   277     3.9   1010.5    0.00 
 206   23:30   0.00   57.5    98    2.4   283     3.1   1010.5    0.00 
 206   23:40   0.00   57.6    98    2.2   296     3.6   1010.5    0.00 
 206   23:50   0.00   57.6    98    1.8   301     3.6   1010.5    0.00 
 207    0:00   0.00   57.6    98    2.1   301     3.5   1010.4    0.00 
 207    0:10   0.00   57.7    99    1.6   310     2.9   1010.3    0.00 
 207    0:20   0.00   57.7    99    1.7   316     3.0   1010.2    0.00 
 207    0:30   0.00   57.4    99    1.0   360     2.8   1010.3    0.00 
 207    0:40   0.00   57.5    99    0.9   297     1.8   1010.2    0.00 
 207    0:50   0.00   57.5    99    1.3   276     2.6   1010.2    0.00 
 207    1:00   0.00   57.3    99    1.2   243     1.8   1010.2    0.00 
 207    1:10   0.00   57.3    99    0.7   182     2.0   1010.2    0.00 
 207    1:20   0.00   57.3    99    0.8   260     2.6   1010.2    0.00 
 207    1:30   0.00   57.1    99    1.6   237     2.7   1010.1    0.00 
 207    1:40   0.00   57.2    99    0.4    77     2.1   1010.0    0.00 
 207    1:50   0.00   57.1    99    1.0    17     2.2   1009.9    0.00 
 207    2:00   0.00   56.9    99    1.9    52     3.3   1009.9    0.00 
 207    2:10   0.00   56.7    99    2.2    20     3.4   1009.9    0.00 
 207    2:20   0.00   56.8    99    0.7   338     2.1   1009.9    0.00 
 207    2:30   0.00   56.9    99    1.1   279     2.6   1009.9    0.00 
 207    2:40   0.00   56.9    99    1.5   241     3.4   1009.9    0.00 
 207    2:50   0.00   56.8    99    1.6   235     2.6   1009.9    0.00 
 207    3:00   0.00   56.8    99    2.8   299     4.5   1009.9    0.00 
 207    3:10   0.00   56.6    99    1.6   273     2.9   1009.9    0.00 
 207    3:20   0.00   56.7    99    1.7   238     3.2   1009.9    0.00 
 207    3:30   0.00   56.6    99    1.7   285     3.1   1009.9    0.00 
 207    3:40   0.00   56.6    99    2.6   269     3.2   1009.9    0.00 
 207    3:50   0.00   56.5    99    2.5   277     3.2   1009.8    0.00 
 207    4:00   0.00   56.4    99    2.9   298     4.1   1009.8    0.00 
 207    4:10   0.00   56.4    99    2.0   300     2.9   1009.9    0.00 
 207    4:20   0.00   56.3    99    1.5    95     2.9   1010.0    0.00 
 207    4:30   0.00   56.3    99    1.1    70     2.1   1010.1    0.00 
 207    4:40   0.00   56.4    99    0.4   168     1.2   1010.3    0.00 
 207    4:50   0.00   56.3    99    1.3   225     2.2   1010.3    0.00 
 207    5:00   0.00   56.3    99    1.6   219     2.3   1010.4    0.00 
 207    5:10   0.00   56.3    99    0.9   248     1.7   1010.4    0.00 
 207    5:20   0.01   56.3    99    0.2     6     2.0   1010.5    0.00 
 207    5:30   0.01   56.3    99    0.3    32     1.6   1010.6    0.00 
 207    5:40   0.01   56.4    99    1.0   278     2.0   1010.6    0.00 
 207    5:50   0.03   56.5    99    1.7   298     3.9   1010.6    0.00 
 207    6:00   0.03   56.5    99    1.5   268     3.1   1010.7    0.00 
 207    6:10   0.03   56.4    99    2.2   238     3.2   1010.9    0.00 
 207    6:20   0.04   56.6    99    1.9   252     3.0   1010.9    0.00 
 207    6:30   0.05   56.5    99    2.9   264     4.8   1011.1    0.00 

Return to Norris Rancho Marino Reserve graphs page.


Western Regional Climate Center,wrcc@dri.edu